createdAt,value
2017-07-05T00:02:00.704Z,18.50
2017-07-05T00:04:27.304Z,18.40
2017-07-05T00:06:53.571Z,18.40
2017-07-05T00:09:20.504Z,18.40
2017-07-05T00:11:48.270Z,18.30
2017-07-05T00:14:14.574Z,18.30
2017-07-05T00:16:40.831Z,18.30
2017-07-05T00:19:08.121Z,18.20
2017-07-05T00:21:34.400Z,18.20
2017-07-05T00:24:01.695Z,18.10
2017-07-05T00:26:28.976Z,18.10
2017-07-05T00:28:55.272Z,18.10
2017-07-05T00:31:22.509Z,18.10
2017-07-05T00:33:48.789Z,18.00
2017-07-05T00:36:15.618Z,18.00
2017-07-05T00:38:44.004Z,18.00
2017-07-05T00:41:10.261Z,17.90
2017-07-05T00:43:37.441Z,17.70
2017-07-05T00:46:04.696Z,17.70
2017-07-05T00:48:30.962Z,17.70
2017-07-05T00:50:59.142Z,17.70
2017-07-05T00:53:27.181Z,17.70
2017-07-05T00:55:53.481Z,17.70
2017-07-05T00:58:20.717Z,17.70
2017-07-05T01:00:50.168Z,17.60
2017-07-05T01:03:16.419Z,17.60
2017-07-05T01:05:44.058Z,17.60
2017-07-05T01:08:11.867Z,17.50
2017-07-05T01:10:39.539Z,17.40
2017-07-05T01:13:09.851Z,17.30
2017-07-05T01:15:38.586Z,17.30
2017-07-05T01:18:05.727Z,17.30
2017-07-05T01:20:36.229Z,17.40
2017-07-05T01:23:03.495Z,17.30
2017-07-05T01:25:31.973Z,17.20
2017-07-05T01:27:59.304Z,17.20
2017-07-05T01:30:26.408Z,17.30
2017-07-05T01:32:52.674Z,17.20
2017-07-05T01:35:22.639Z,17.20
2017-07-05T01:37:53.049Z,17.20
2017-07-05T01:40:19.805Z,17.20
2017-07-05T01:42:50.084Z,17.20
2017-07-05T01:45:18.826Z,17.20
2017-07-05T01:47:48.433Z,17.00
2017-07-05T01:50:15.143Z,16.70
2017-07-05T01:52:41.460Z,16.70
2017-07-05T01:55:11.813Z,16.70
2017-07-05T01:57:38.977Z,16.70
2017-07-05T02:00:07.500Z,16.80
2017-07-05T02:02:34.298Z,16.90
2017-07-05T02:05:01.546Z,16.80
2017-07-05T02:07:28.965Z,16.70
2017-07-05T02:09:57.910Z,16.60
2017-07-05T02:12:25.539Z,16.50
2017-07-05T02:14:52.481Z,16.50
2017-07-05T02:17:19.753Z,16.60
2017-07-05T02:19:47.419Z,16.70
2017-07-05T02:22:15.086Z,16.80
2017-07-05T02:24:41.768Z,16.70
2017-07-05T02:27:09.593Z,16.70
2017-07-05T02:29:37.177Z,16.80
2017-07-05T02:32:04.715Z,16.90
2017-07-05T02:34:30.987Z,16.80
2017-07-05T02:36:57.275Z,16.80
2017-07-05T02:39:23.568Z,16.80
2017-07-05T02:41:49.859Z,16.70
2017-07-05T02:44:16.119Z,16.70
2017-07-05T02:46:42.389Z,16.70
2017-07-05T02:49:08.685Z,16.70
2017-07-05T02:51:34.980Z,16.70
2017-07-05T02:54:01.269Z,16.70
2017-07-05T02:56:27.544Z,16.50
2017-07-05T02:58:53.801Z,16.50
2017-07-05T03:01:20.088Z,16.50
2017-07-05T03:03:46.341Z,16.50
2017-07-05T03:06:12.639Z,16.50
2017-07-05T03:08:38.928Z,16.50
2017-07-05T03:11:05.224Z,16.40
2017-07-05T03:13:31.482Z,16.40
2017-07-05T03:15:57.788Z,16.40
2017-07-05T03:18:24.064Z,16.40
2017-07-05T03:20:50.722Z,16.20
2017-07-05T03:23:16.976Z,16.20
2017-07-05T03:25:43.279Z,16.10
2017-07-05T03:28:09.553Z,16.10
2017-07-05T03:30:35.834Z,16.10
2017-07-05T03:33:02.113Z,16.10
2017-07-05T03:35:28.394Z,16.20
2017-07-05T03:37:54.712Z,16.20
2017-07-05T03:40:21.010Z,16.20
2017-07-05T03:42:47.300Z,16.20
2017-07-05T03:45:13.585Z,16.20
2017-07-05T03:47:40.235Z,16.30
2017-07-05T03:50:06.496Z,16.30
2017-07-05T03:52:32.824Z,16.40
2017-07-05T03:54:59.087Z,16.40
2017-07-05T03:57:25.385Z,16.30
2017-07-05T03:59:51.632Z,16.30
2017-07-05T04:02:17.918Z,16.40
2017-07-05T04:04:44.156Z,16.30
2017-07-05T04:07:10.434Z,16.40
2017-07-05T04:09:36.722Z,16.40
2017-07-05T04:12:03.036Z,16.40
2017-07-05T04:14:29.308Z,16.40
2017-07-05T04:16:55.563Z,16.50
2017-07-05T04:19:21.812Z,16.40
2017-07-05T04:21:48.076Z,16.50
2017-07-05T04:24:14.334Z,16.50
2017-07-05T04:26:40.612Z,16.50
2017-07-05T04:29:06.901Z,16.50
2017-07-05T04:31:33.179Z,16.70
2017-07-05T04:33:59.454Z,16.70
2017-07-05T04:36:25.728Z,16.70
2017-07-05T04:38:51.994Z,16.70
2017-07-05T04:41:18.275Z,16.80
2017-07-05T04:43:44.927Z,16.90
2017-07-05T04:46:11.187Z,16.90
2017-07-05T04:48:37.497Z,16.90
2017-07-05T04:51:03.788Z,16.90
2017-07-05T04:53:30.446Z,17.00
2017-07-05T04:55:56.702Z,17.00
2017-07-05T04:58:22.992Z,16.90
2017-07-05T05:00:49.501Z,16.90
2017-07-05T05:03:15.777Z,16.90
2017-07-05T05:05:42.064Z,16.90
2017-07-05T05:08:08.365Z,16.90
2017-07-05T05:10:34.645Z,17.00
2017-07-05T05:13:01.312Z,17.10
2017-07-05T05:15:27.576Z,17.10
2017-07-05T05:17:53.869Z,17.10
2017-07-05T05:20:20.129Z,17.00
2017-07-05T05:22:46.423Z,17.20
2017-07-05T05:25:12.696Z,17.30
2017-07-05T05:27:38.963Z,17.40
2017-07-05T05:30:05.242Z,17.50
2017-07-05T05:32:31.547Z,17.50
2017-07-05T05:34:57.811Z,17.60
2017-07-05T05:37:24.099Z,17.60
2017-07-05T05:39:50.387Z,17.70
2017-07-05T05:42:17.318Z,17.60
2017-07-05T05:44:43.597Z,17.60
2017-07-05T05:47:09.892Z,17.60
2017-07-05T05:49:36.528Z,17.90
2017-07-05T05:52:03.205Z,17.90
2017-07-05T05:54:29.520Z,17.90
2017-07-05T05:56:55.796Z,17.90
2017-07-05T05:59:22.077Z,17.90
2017-07-05T06:01:48.377Z,18.00
2017-07-05T06:04:14.648Z,18.10
2017-07-05T06:06:40.950Z,18.10
2017-07-05T06:09:07.596Z,18.40
2017-07-05T06:11:33.863Z,18.40
2017-07-05T06:14:00.208Z,18.60
2017-07-05T06:16:26.474Z,18.80
2017-07-05T06:18:53.130Z,19.10
2017-07-05T06:21:19.748Z,19.30
2017-07-05T06:23:46.406Z,19.30
2017-07-05T06:26:13.044Z,19.30
2017-07-05T06:28:39.298Z,19.30
2017-07-05T06:31:05.625Z,19.40
2017-07-05T06:33:31.916Z,19.50
2017-07-05T06:35:58.590Z,19.50
2017-07-05T06:38:24.988Z,19.50
2017-07-05T06:40:51.644Z,19.70
2017-07-05T06:43:18.098Z,19.70
2017-07-05T06:45:44.386Z,19.90
2017-07-05T06:48:10.794Z,19.90
2017-07-05T06:50:37.062Z,19.80
2017-07-05T06:53:03.344Z,19.90
2017-07-05T06:55:29.640Z,20.00
2017-07-05T06:57:55.935Z,20.30
2017-07-05T07:00:22.219Z,20.30
2017-07-05T07:02:48.488Z,20.40
2017-07-05T07:05:14.756Z,20.50
2017-07-05T07:07:41.020Z,20.60
2017-07-05T07:10:07.299Z,20.70
2017-07-05T07:12:33.560Z,20.80
2017-07-05T07:14:59.832Z,20.80
2017-07-05T07:17:26.080Z,20.90
2017-07-05T07:19:52.356Z,21.00
2017-07-05T07:22:18.640Z,21.10
2017-07-05T07:24:44.922Z,21.30
2017-07-05T07:27:11.609Z,21.50
2017-07-05T07:29:38.291Z,21.60
2017-07-05T07:32:04.540Z,21.60
2017-07-05T07:34:30.829Z,21.70
2017-07-05T07:36:57.095Z,21.80
2017-07-05T07:39:23.398Z,22.00
2017-07-05T07:41:49.657Z,22.10
2017-07-05T07:44:15.918Z,22.20
2017-07-05T07:46:42.173Z,22.40
2017-07-05T07:49:08.442Z,22.50
2017-07-05T07:51:34.719Z,22.60
2017-07-05T07:54:01.024Z,22.50
2017-07-05T07:56:27.319Z,22.40
2017-07-05T07:58:53.587Z,22.60
2017-07-05T08:01:20.312Z,22.60
2017-07-05T08:03:46.624Z,22.60
2017-07-05T08:06:13.056Z,22.90
2017-07-05T08:08:39.362Z,22.90
2017-07-05T08:11:05.656Z,23.00
2017-07-05T08:13:31.921Z,23.20
2017-07-05T08:15:58.203Z,23.20
2017-07-05T08:18:24.853Z,23.50
2017-07-05T08:20:51.141Z,23.50
2017-07-05T08:23:17.449Z,23.30
2017-07-05T08:25:43.739Z,23.50
2017-07-05T08:28:10.380Z,23.90
2017-07-05T08:30:37.035Z,24.00
2017-07-05T08:33:03.317Z,24.00
2017-07-05T08:35:29.606Z,24.10
2017-07-05T08:37:55.930Z,24.20
2017-07-05T08:40:22.296Z,24.20
2017-07-05T08:42:48.581Z,24.50
2017-07-05T08:45:14.875Z,24.50
2017-07-05T08:47:41.147Z,24.60
2017-07-05T08:50:07.445Z,24.80
2017-07-05T08:52:34.080Z,24.90
2017-07-05T08:55:00.716Z,25.00
2017-07-05T08:57:26.984Z,25.00
2017-07-05T08:59:53.252Z,25.30
2017-07-05T09:02:19.526Z,25.50
2017-07-05T09:04:46.079Z,25.70
2017-07-05T09:07:12.365Z,25.80
2017-07-05T09:09:38.671Z,25.90
2017-07-05T09:12:05.019Z,25.80
2017-07-05T09:14:31.279Z,25.90
2017-07-05T09:16:57.588Z,26.10
2017-07-05T09:19:24.242Z,26.00
2017-07-05T09:21:50.968Z,26.10
2017-07-05T09:24:17.297Z,26.10
2017-07-05T09:26:43.549Z,26.30
2017-07-05T09:29:09.838Z,26.30
2017-07-05T09:31:36.105Z,26.30
2017-07-05T09:34:02.349Z,26.30
2017-07-05T09:36:28.762Z,26.50
2017-07-05T09:38:55.075Z,26.60
2017-07-05T09:41:21.727Z,27.00
2017-07-05T09:43:48.337Z,27.20
2017-07-05T09:46:14.613Z,27.30
2017-07-05T09:48:40.881Z,27.30
2017-07-05T09:51:07.168Z,27.30
2017-07-05T09:53:33.416Z,27.30
2017-07-05T09:55:59.693Z,27.10
2017-07-05T09:58:26.340Z,27.10
2017-07-05T10:00:53.009Z,27.30
2017-07-05T10:03:19.296Z,27.30
2017-07-05T10:05:45.615Z,27.40
2017-07-05T10:08:11.912Z,27.60
2017-07-05T10:10:38.203Z,27.70
2017-07-05T10:13:04.448Z,27.90
2017-07-05T10:15:30.716Z,28.10
2017-07-05T10:17:57.092Z,28.20
2017-07-05T10:20:23.367Z,28.40
2017-07-05T10:22:49.666Z,28.50
2017-07-05T10:25:15.954Z,28.40
2017-07-05T10:27:42.252Z,28.60
2017-07-05T10:30:08.498Z,28.90
2017-07-05T10:32:34.787Z,29.20
2017-07-05T10:35:01.060Z,29.30
2017-07-05T10:37:27.357Z,29.60
2017-07-05T10:39:53.621Z,29.80
2017-07-05T10:42:19.903Z,30.00
2017-07-05T10:44:46.205Z,30.10
2017-07-05T10:47:12.496Z,30.10
2017-07-05T10:49:38.738Z,30.50
2017-07-05T10:52:05.026Z,30.90
2017-07-05T10:54:31.288Z,31.30
2017-07-05T10:56:57.600Z,31.60
2017-07-05T10:59:23.904Z,31.70
2017-07-05T11:01:50.213Z,32.00
2017-07-05T11:04:16.465Z,32.20
2017-07-05T11:06:42.747Z,32.20
2017-07-05T11:09:09.021Z,32.10
2017-07-05T11:11:35.297Z,32.30
2017-07-05T11:14:01.585Z,32.10
2017-07-05T11:16:27.905Z,32.00
2017-07-05T11:18:54.167Z,31.70
2017-07-05T11:21:20.446Z,31.60
2017-07-05T11:23:46.729Z,31.80
2017-07-05T11:26:13.031Z,31.80
2017-07-05T11:28:39.328Z,31.80
2017-07-05T11:31:05.639Z,31.60
2017-07-05T11:33:31.943Z,31.40
2017-07-05T11:35:58.232Z,31.70
2017-07-05T11:38:24.565Z,32.10
2017-07-05T11:40:50.862Z,32.20
2017-07-05T11:43:17.158Z,32.40
2017-07-05T11:45:43.438Z,32.50
2017-07-05T11:48:10.076Z,32.80
2017-07-05T11:50:36.740Z,33.40
2017-07-05T11:53:03.291Z,33.40
2017-07-05T11:55:29.534Z,34.80
2017-07-05T11:57:55.780Z,36.50
2017-07-05T12:00:22.142Z,39.20
2017-07-05T12:02:48.465Z,40.70
2017-07-05T12:05:15.117Z,41.40
2017-07-05T12:07:41.772Z,42.60
2017-07-05T12:10:08.056Z,42.60
2017-07-05T12:12:34.342Z,42.30
2017-07-05T12:15:00.647Z,43.40
2017-07-05T12:17:27.298Z,47.00
2017-07-05T12:19:53.976Z,47.00
2017-07-05T12:22:20.229Z,49.00
2017-07-05T12:24:46.488Z,49.70
2017-07-05T12:27:12.789Z,50.20
2017-07-05T12:29:39.407Z,49.30
2017-07-05T12:32:05.690Z,49.30
2017-07-05T12:34:32.005Z,48.80
2017-07-05T12:36:58.267Z,49.50
2017-07-05T12:39:24.550Z,50.40
2017-07-05T12:41:51.175Z,52.80
2017-07-05T12:44:17.477Z,52.80
2017-07-05T12:46:43.799Z,52.00
2017-07-05T12:49:10.115Z,51.80
2017-07-05T12:51:36.387Z,52.20
2017-07-05T12:54:02.700Z,50.20
2017-07-05T12:56:29.005Z,48.10
2017-07-05T12:58:55.339Z,45.90
2017-07-05T13:01:21.616Z,45.80
2017-07-05T13:03:47.921Z,48.00
2017-07-05T13:06:14.223Z,50.80
2017-07-05T13:08:40.515Z,50.70
2017-07-05T13:11:06.806Z,48.40
2017-07-05T13:13:33.120Z,46.00
2017-07-05T13:15:59.429Z,44.90
2017-07-05T13:18:25.774Z,43.50
2017-07-05T13:20:52.059Z,41.80
2017-07-05T13:23:18.348Z,40.30
2017-07-05T13:25:44.644Z,39.20
2017-07-05T13:28:10.925Z,39.80
2017-07-05T13:30:37.198Z,41.70
2017-07-05T13:33:03.791Z,41.70
2017-07-05T13:35:30.112Z,40.90
2017-07-05T13:37:58.326Z,39.80
2017-07-05T13:40:25.014Z,44.70
2017-07-05T13:42:51.297Z,44.70
2017-07-05T13:45:17.574Z,47.30
2017-07-05T13:47:43.818Z,48.10
2017-07-05T13:50:10.116Z,46.70
2017-07-05T13:52:36.383Z,46.40
2017-07-05T13:55:02.688Z,47.60
2017-07-05T13:57:28.976Z,49.00
2017-07-05T13:59:55.688Z,53.60
2017-07-05T14:02:21.956Z,53.60
2017-07-05T14:04:48.694Z,54.90
2017-07-05T14:07:14.983Z,53.00
2017-07-05T14:09:41.245Z,49.70
2017-07-05T14:12:07.515Z,47.70
2017-07-05T14:14:33.802Z,45.60
2017-07-05T14:17:00.462Z,44.00
2017-07-05T14:19:26.763Z,44.00
2017-07-05T14:21:53.064Z,44.80
2017-07-05T14:24:19.358Z,44.40
2017-07-05T14:26:45.634Z,43.40
2017-07-05T14:29:11.922Z,42.10
2017-07-05T14:31:38.226Z,40.90
2017-07-05T14:34:04.494Z,41.20
2017-07-05T14:36:30.746Z,41.30
2017-07-05T14:38:57.042Z,40.50
2017-07-05T14:41:23.316Z,40.30
2017-07-05T14:43:49.572Z,39.90
2017-07-05T14:46:15.884Z,39.10
2017-07-05T14:48:42.149Z,39.60
2017-07-05T14:51:08.459Z,40.90
2017-07-05T14:53:34.744Z,41.10
2017-07-05T14:56:01.047Z,40.80
2017-07-05T14:58:27.304Z,42.10
2017-07-05T15:00:53.611Z,44.80
2017-07-05T15:03:20.094Z,47.00
2017-07-05T15:05:46.434Z,48.50
2017-07-05T15:08:12.756Z,49.70
2017-07-05T15:10:39.048Z,49.00
2017-07-05T15:13:05.376Z,48.30
2017-07-05T15:15:31.655Z,47.80
2017-07-05T15:17:57.941Z,46.20
2017-07-05T15:20:24.323Z,46.80
2017-07-05T15:22:50.721Z,48.70
2017-07-05T15:25:17.051Z,50.40
2017-07-05T15:27:43.446Z,51.90
2017-07-05T15:30:09.763Z,52.00
2017-07-05T15:32:36.109Z,52.60
2017-07-05T15:35:02.583Z,53.50
2017-07-05T15:37:29.033Z,54.10
2017-07-05T15:39:55.709Z,54.10
2017-07-05T15:42:22.019Z,54.10
2017-07-05T15:44:48.384Z,54.30
2017-07-05T15:47:14.968Z,54.10
2017-07-05T15:49:42.566Z,53.80
2017-07-05T15:52:09.095Z,53.80
2017-07-05T15:54:35.496Z,53.50
2017-07-05T15:57:02.263Z,52.50
2017-07-05T15:59:29.201Z,52.50
2017-07-05T16:01:55.510Z,52.30
2017-07-05T16:04:21.761Z,51.80
2017-07-05T16:06:48.049Z,50.70
2017-07-05T16:09:14.348Z,49.90
2017-07-05T16:11:40.627Z,49.60
2017-07-05T16:14:06.893Z,48.20
2017-07-05T16:16:40.168Z,46.20
2017-07-05T16:19:06.449Z,45.80
2017-07-05T16:21:32.742Z,46.20
2017-07-05T16:23:59.012Z,46.30
2017-07-05T16:26:25.311Z,46.20
2017-07-05T16:28:51.580Z,45.30
2017-07-05T16:31:17.839Z,44.10
2017-07-05T16:33:44.103Z,43.10
2017-07-05T16:36:10.386Z,41.60
2017-07-05T16:38:37.030Z,41.40
2017-07-05T16:41:03.279Z,41.40
2017-07-05T16:43:29.539Z,41.30
2017-07-05T16:45:55.834Z,41.30
2017-07-05T16:48:22.137Z,40.90
2017-07-05T16:50:48.801Z,40.40
2017-07-05T16:53:15.072Z,40.40
2017-07-05T16:55:41.352Z,40.20
2017-07-05T16:58:07.655Z,39.90
2017-07-05T17:00:33.945Z,39.20
2017-07-05T17:03:00.565Z,38.80
2017-07-05T17:05:26.806Z,38.20
2017-07-05T17:07:53.047Z,37.00
2017-07-05T17:10:19.328Z,36.30
2017-07-05T17:12:45.617Z,35.80
2017-07-05T17:15:11.906Z,35.10
2017-07-05T17:17:38.147Z,34.60
2017-07-05T17:20:04.463Z,34.30
2017-07-05T17:22:30.755Z,33.60
2017-07-05T17:24:57.452Z,33.30
2017-07-05T17:27:23.755Z,33.20
2017-07-05T17:29:50.045Z,33.00
2017-07-05T17:32:16.365Z,33.10
2017-07-05T17:34:42.617Z,32.70
2017-07-05T17:37:08.912Z,32.50
2017-07-05T17:39:35.185Z,32.30
2017-07-05T17:42:01.806Z,31.80
2017-07-05T17:44:28.097Z,31.80
2017-07-05T17:46:54.397Z,31.40
2017-07-05T17:49:20.708Z,30.90
2017-07-05T17:51:46.975Z,30.70
2017-07-05T17:54:13.242Z,30.40
2017-07-05T17:56:39.558Z,30.10
2017-07-05T17:59:05.883Z,30.00
2017-07-05T18:01:32.194Z,30.10
2017-07-05T18:03:58.504Z,29.90
2017-07-05T18:06:24.811Z,29.80
2017-07-05T18:08:51.070Z,29.70
2017-07-05T18:11:17.369Z,29.80
2017-07-05T18:13:43.708Z,29.70
2017-07-05T18:16:10.066Z,29.80
2017-07-05T18:18:36.386Z,29.70
2017-07-05T18:21:02.715Z,29.70
2017-07-05T18:23:29.059Z,29.70
2017-07-05T18:25:55.637Z,29.80
2017-07-05T18:28:21.917Z,29.80
2017-07-05T18:30:48.196Z,29.80
2017-07-05T18:33:14.511Z,29.80
2017-07-05T18:35:40.817Z,29.60
2017-07-05T18:38:07.186Z,29.30
2017-07-05T18:40:33.629Z,29.20
2017-07-05T18:42:59.949Z,29.10
2017-07-05T18:45:26.255Z,29.10
2017-07-05T18:47:52.552Z,28.90
2017-07-05T18:50:19.026Z,28.80
2017-07-05T18:52:46.172Z,28.60
2017-07-05T18:55:13.294Z,28.40
2017-07-05T18:57:40.269Z,28.20
2017-07-05T19:00:07.155Z,28.10
2017-07-05T19:02:34.077Z,27.90
2017-07-05T19:05:00.413Z,27.80
2017-07-05T19:07:26.787Z,27.50
2017-07-05T19:09:53.065Z,27.40
2017-07-05T19:12:19.434Z,27.30
2017-07-05T19:14:47.045Z,27.00
2017-07-05T19:17:20.426Z,27.00
2017-07-05T19:19:46.733Z,26.90
2017-07-05T19:22:13.069Z,26.80
2017-07-05T19:24:39.422Z,26.60
2017-07-05T19:27:05.837Z,26.40
2017-07-05T19:29:32.474Z,26.30
2017-07-05T19:31:59.048Z,26.10
2017-07-05T19:34:25.391Z,26.00
2017-07-05T19:36:51.717Z,25.90
2017-07-05T19:39:18.591Z,25.70
2017-07-05T19:41:44.965Z,25.70
2017-07-05T19:44:11.321Z,25.70
2017-07-05T19:46:45.499Z,25.40
2017-07-05T19:49:11.838Z,25.30
2017-07-05T19:51:39.356Z,25.30
2017-07-05T19:54:05.888Z,25.20
2017-07-05T19:56:32.246Z,25.10
2017-07-05T19:58:58.592Z,25.00
2017-07-05T20:01:24.978Z,25.00
2017-07-05T20:03:51.298Z,24.90
2017-07-05T20:06:18.041Z,24.90
2017-07-05T20:08:44.406Z,24.70
2017-07-05T20:11:10.769Z,24.60
2017-07-05T20:13:37.097Z,24.50
2017-07-05T20:16:03.799Z,24.50
2017-07-05T20:18:30.403Z,24.40
2017-07-05T20:20:56.721Z,24.30
2017-07-05T20:23:23.042Z,24.20
2017-07-05T20:25:49.384Z,24.10
2017-07-05T20:28:15.743Z,24.10
2017-07-05T20:30:42.030Z,24.00
2017-07-05T20:33:15.261Z,23.90
2017-07-05T20:35:41.965Z,23.70
2017-07-05T20:38:08.382Z,23.70
2017-07-05T20:40:34.685Z,23.60
2017-07-05T20:43:01.116Z,23.60
2017-07-05T20:45:27.470Z,23.50
2017-07-05T20:47:53.767Z,23.50
2017-07-05T20:50:20.035Z,23.30
2017-07-05T20:52:46.372Z,23.40
2017-07-05T20:55:14.692Z,23.30
2017-07-05T20:57:41.048Z,23.30
2017-07-05T21:00:07.328Z,23.30
2017-07-05T21:02:33.683Z,23.30
2017-07-05T21:05:00.353Z,23.20
2017-07-05T21:07:26.715Z,23.20
2017-07-05T21:09:53.027Z,23.10
2017-07-05T21:12:19.378Z,23.10
2017-07-05T21:14:45.700Z,23.10
2017-07-05T21:17:12.070Z,23.00
2017-07-05T21:19:38.741Z,22.90
2017-07-05T21:22:05.028Z,22.90
2017-07-05T21:24:31.393Z,22.80
2017-07-05T21:26:57.721Z,22.70
2017-07-05T21:29:24.025Z,22.60
2017-07-05T21:31:50.687Z,22.50
2017-07-05T21:34:17.026Z,22.50
2017-07-05T21:36:43.312Z,22.50
2017-07-05T21:39:09.940Z,22.40
2017-07-05T21:41:36.259Z,22.40
2017-07-05T21:44:03.138Z,22.40
2017-07-05T21:46:36.285Z,22.30
2017-07-05T21:49:03.404Z,22.30
2017-07-05T21:51:29.689Z,22.20
2017-07-05T21:53:55.984Z,22.10
2017-07-05T21:56:22.250Z,22.10
2017-07-05T21:58:48.558Z,22.10
2017-07-05T22:01:14.884Z,22.10
2017-07-05T22:03:41.152Z,22.10
2017-07-05T22:06:07.435Z,22.10
2017-07-05T22:08:34.579Z,21.90
2017-07-05T22:11:00.842Z,21.80
2017-07-05T22:13:27.162Z,21.80
2017-07-05T22:15:53.416Z,21.70
2017-07-05T22:18:19.727Z,21.60
2017-07-05T22:20:46.000Z,21.60
2017-07-05T22:23:12.288Z,21.50
2017-07-05T22:25:39.472Z,21.50
2017-07-05T22:28:05.740Z,21.40
2017-07-05T22:30:32.024Z,21.30
2017-07-05T22:32:58.678Z,21.30
2017-07-05T22:35:24.989Z,21.30
2017-07-05T22:37:51.336Z,21.20
2017-07-05T22:40:17.605Z,21.20
2017-07-05T22:42:43.908Z,21.10
2017-07-05T22:45:10.211Z,21.00
2017-07-05T22:47:36.880Z,21.00
2017-07-05T22:50:03.207Z,21.00
2017-07-05T22:52:29.474Z,20.90
2017-07-05T22:54:55.763Z,20.90
2017-07-05T22:57:22.034Z,20.80
2017-07-05T22:59:48.376Z,20.70
2017-07-05T23:02:14.675Z,20.70
2017-07-05T23:04:40.948Z,20.80
2017-07-05T23:07:07.248Z,20.80
2017-07-05T23:09:33.555Z,20.80
2017-07-05T23:11:59.839Z,20.60
2017-07-05T23:14:26.124Z,20.50
2017-07-05T23:16:52.401Z,20.40
2017-07-05T23:19:19.117Z,20.40
2017-07-05T23:21:45.407Z,20.50
2017-07-05T23:24:11.736Z,20.40
2017-07-05T23:26:37.998Z,20.30
2017-07-05T23:29:04.293Z,20.40
2017-07-05T23:31:30.587Z,20.40
2017-07-05T23:33:57.311Z,20.30
2017-07-05T23:36:23.605Z,20.30
2017-07-05T23:38:49.889Z,20.30
2017-07-05T23:41:16.537Z,20.30
2017-07-05T23:43:43.207Z,20.30
2017-07-05T23:46:09.490Z,20.30
2017-07-05T23:48:36.230Z,20.20
2017-07-05T23:51:02.872Z,20.10
2017-07-05T23:53:29.510Z,20.10
2017-07-05T23:55:55.901Z,20.10
2017-07-05T23:58:22.196Z,20.00
